• Join FlightAware (Why Join?)
  • Login
  • US Flag 
05:39PM EDT


 

Airport Tracker/Info


-or-


 

Live Flight TrackerFlight Track Log ✈ N911CX ✈ 07-Oct-2013 ✈ KNYL - KPHX

Flight Track Log - Related Links

Times and Time Zones

All times are in EDT time to prevent confusion due to time zone crossing. See the N911CX flight status page for this flight to view local times or setup timezone preferences in your user account.

Time Position Orientation Groundspeed Altitude Reporting Facility
EDT Latitude Longitude Course Direction KTS MPH feet Rate Location/Type
10:09PM 32.6661 -114.5753 68° East 145 167 600  Level Los Angeles Center
10:09PM 32.6689 -114.5669 68° East 156 180 800 1,200 Climbing Los Angeles Center
10:10PM 32.6878 -114.5214 64° Northeast 163 188 2,000 1,320 Climbing Los Angeles Center
10:11PM 32.6964 -114.4864 74° East 159 183 3,100 1,500 Climbing Los Angeles Center
10:11PM 32.7019 -114.4719 65° Northeast 162 186 3,500 840 Climbing Los Angeles Center
10:12PM 32.7136 -114.4356 69° East 162 186 4,000 840 Climbing Los Angeles Center
10:12PM 32.7225 -114.4131 65° Northeast 184 212 4,400 960 Climbing Los Angeles Center
10:13PM 32.7342 -114.3806 67° East 171 197 5,200 1,200 Climbing Los Angeles Center
10:13PM 32.7447 -114.3617 56° Northeast 184 212 5,600 1,020 Climbing Los Angeles Center
10:14PM 32.7633 -114.3158 64° Northeast 178 205 6,300 840 Climbing Los Angeles Center
10:14PM 32.7683 -114.3069 56° Northeast 186 214 6,500 1,080 Climbing Los Angeles Center
10:15PM 32.7792 -114.2567 76° East 184 212 7,400 1,080 Climbing Los Angeles Center
10:15PM 32.7756 -114.2442 109° East 185 213 7,600 1,020 Climbing Los Angeles Center
10:16PM 32.7722 -114.1969 95° East 183 211 8,500 1,080 Climbing Los Angeles Center
10:16PM 32.7686 -114.1878 115° Southeast 177 204 8,700 1,440 Climbing Los Angeles Center
10:17PM 32.7747 -114.1272 83° East 178 205 10,000 1,260 Climbing Los Angeles Center
10:17PM 32.7722 -114.1283 200° South 179 206 10,000 720 Level Los Angeles Center
10:18PM 32.7758 -114.0653 86° East 184 212 10,800 540 Climbing Los Angeles Center
10:19PM 32.7753 -114.0008 91° East 193 222 11,100 60 Climbing Los Angeles Center
10:20PM 32.7794 -113.9236 86° East 228 262 11,000  Descending Los Angeles Center
10:21PM 32.8033 -113.8519 68° East 233 268 11,100  Climbing Los Angeles Center
10:22PM 32.8411 -113.7867 55° Northeast 236 272 11,100  Level Los Angeles Center
10:23PM 32.8786 -113.7208 56° Northeast 239 275 11,100 -60 Level Los Angeles Center
10:24PM 32.9117 -113.6525 60° Northeast 239 275 11,000  Descending Los Angeles Center
10:25PM 32.9375 -113.5969 61° Northeast 238 274 11,100  Climbing Albuquerque Center
10:26PM 32.9697 -113.5281 61° Northeast 238 274 11,100  Level Albuquerque Center
10:27PM 33.0078 -113.4456 61° Northeast 236 272 11,100 -60 Level Albuquerque Center
10:28PM 33.0375 -113.3756 63° Northeast 236 272 11,000 -60 Descending Albuquerque Center
10:29PM 33.0692 -113.3058 62° Northeast 237 273 11,000  Level Albuquerque Center
10:30PM 33.0917 -113.2328 70° East 234 269 11,000  Level Albuquerque Center
10:31PM 33.1161 -113.1592 68° East 236 272 11,000  Level Albuquerque Center
10:32PM 33.1508 -113.0908 59° Northeast 238 274 11,000  Level Albuquerque Center
10:33PM 33.1825 -113.0208 62° Northeast 239 275 11,000  Level Albuquerque Center
10:34PM 33.2153 -112.9511 61° Northeast 240 276 11,000  Level Albuquerque Center
10:35PM 33.2456 -112.8817 62° Northeast 237 273 11,000  Level Albuquerque Center
10:36PM 33.2761 -112.8094 63° Northeast 238 274 11,000  Level Albuquerque Center
10:37PM 33.2819 -112.7325 85° East 233 268 11,000  Level Albuquerque Center
10:38PM 33.2867 -112.6561 86° East 231 266 11,000  Level Albuquerque Center
10:39PM 33.2869 -112.5794 90° East 228 262 11,000  Level Albuquerque Center
10:40PM 33.2878 -112.4878 89° East 229 264 11,000  Level Albuquerque Center
10:41PM 33.2900 -112.4117 88° East 230 265 11,000  Level Albuquerque Center
10:42PM 33.2911 -112.3367 89° East 227 261 11,000 -120 Level Albuquerque Center
10:43PM 33.2931 -112.2611 88° East 229 264 10,800 -540 Descending Albuquerque Center
10:44PM 33.2986 -112.1806 85° East 246 283 10,000 -840 Descending Albuquerque Center
10:45PM 33.3256 -112.1053 67° East 247 284 9,100 -600 Descending Albuquerque Center
10:46PM 33.3433 -112.0339 73° East 224 258 8,800 -840 Descending Albuquerque Center
10:48PM 33.3414 -111.9592 92° East 227 261 7,500 -1,200 Descending Albuquerque Center
10:49PM 33.3375 -111.8914 94° East 204 235 6,400 -1,320 Descending Albuquerque Center
10:50PM 33.3339 -111.8286 94° East 192 221 4,900 -1,380 Descending Albuquerque Center
10:51PM 33.3811 -111.7933 32° Northeast 188 216 3,700 -840 Descending Albuquerque Center
10:52PM 33.4206 -111.8183 332° Northwest 181 208 3,200 -360 Descending Albuquerque Center
10:53PM 33.4286 -111.8742 280° West 170 196 3,000 -300 Descending Albuquerque Center
10:53PM 33.4333 -111.9000 282° West 157 181 2,800 -780 Descending Phoenix TRACON
10:54PM 33.4333 -111.9500 270° West 142 163 1,800 -1,020 Descending Phoenix TRACON